createdAt,value
2019-05-09T09:41:09.537Z,91.27
2019-05-09T09:42:08.990Z,92.36
2019-05-09T09:43:03.688Z,93.45
2019-05-09T09:44:00.621Z,94.62
2019-05-09T09:44:58.574Z,94.59
2019-05-09T09:46:07.181Z,96.05
2019-05-09T09:46:51.561Z,97.72
2019-05-09T09:47:48.601Z,100.00
2019-05-09T09:48:47.836Z,100.00
2019-05-09T09:49:42.672Z,100.00
2019-05-09T09:50:39.608Z,100.00
2019-05-09T09:51:38.268Z,100.00
2019-05-09T09:52:34.515Z,100.00
2019-05-09T09:53:30.739Z,100.00
2019-05-09T09:54:28.207Z,100.00
2019-05-09T09:55:24.713Z,100.00
2019-05-09T09:56:22.598Z,100.00
2019-05-09T09:57:19.120Z,100.00
2019-05-09T09:58:18.686Z,100.00
2019-05-09T09:59:12.849Z,100.00
2019-05-09T10:00:09.754Z,100.00
2019-05-09T10:01:08.992Z,100.00
2019-05-09T10:02:03.886Z,100.00
2019-05-09T10:03:00.831Z,100.00
2019-05-09T10:03:59.547Z,100.00
2019-05-09T10:04:54.738Z,100.00
2019-05-09T10:05:51.785Z,100.00
2019-05-09T10:06:52.805Z,100.00
2019-05-09T10:07:47.687Z,100.00
2019-05-09T10:08:42.919Z,100.00
2019-05-09T10:09:39.914Z,98.27
2019-05-09T10:10:36.869Z,95.64
2019-05-09T10:11:33.839Z,96.97
2019-05-09T10:12:30.897Z,93.71
2019-05-09T10:13:28.543Z,91.17
2019-05-09T10:14:24.827Z,91.80
2019-05-09T10:15:21.887Z,91.22
2019-05-09T10:16:29.131Z,90.85
2019-05-09T10:17:17.973Z,91.89
2019-05-09T10:18:13.385Z,93.93
2019-05-09T10:19:09.990Z,94.39
2019-05-09T10:20:07.134Z,95.07
2019-05-09T10:21:04.016Z,93.49
2019-05-09T10:22:00.905Z,89.19
2019-05-09T10:23:09.469Z,89.20
2019-05-09T10:23:57.398Z,88.72
2019-05-09T10:24:52.020Z,90.38
2019-05-09T10:25:48.994Z,90.35
2019-05-09T10:26:45.996Z,86.78
2019-05-09T10:27:43.071Z,85.62
2019-05-09T10:28:40.116Z,86.46
2019-05-09T10:29:38.733Z,88.45
2019-05-09T10:30:34.059Z,88.04
2019-05-09T10:31:31.196Z,90.68
2019-05-09T10:32:28.924Z,90.25
2019-05-09T10:33:25.086Z,88.34
2019-05-09T10:34:22.181Z,90.58
2019-05-09T10:35:19.159Z,90.20
2019-05-09T10:36:16.100Z,87.60
2019-05-09T10:37:13.136Z,87.97
2019-05-09T10:38:10.163Z,88.89
2019-05-09T10:39:08.288Z,86.61
2019-05-09T10:40:04.142Z,87.05
2019-05-09T10:41:02.045Z,88.74
2019-05-09T10:41:58.271Z,91.16
2019-05-09T10:42:55.205Z,90.96
2019-05-09T10:43:52.155Z,90.76
2019-05-09T10:44:49.277Z,91.07
2019-05-09T10:45:48.327Z,89.75
2019-05-09T10:46:52.830Z,85.48
2019-05-09T10:47:40.245Z,86.95
2019-05-09T10:48:38.590Z,87.17
2019-05-09T10:49:34.422Z,88.70
2019-05-09T10:50:34.081Z,90.76
2019-05-09T10:51:28.293Z,89.81
2019-05-09T10:52:25.325Z,87.90
2019-05-09T10:53:22.355Z,90.14
2019-05-09T10:54:19.209Z,90.11
2019-05-09T10:55:17.922Z,91.02
2019-05-09T10:56:13.236Z,91.59
2019-05-09T10:57:10.308Z,90.33
2019-05-09T10:58:08.149Z,92.25
2019-05-09T10:59:04.467Z,93.78
2019-05-09T11:00:01.422Z,96.33
2019-05-09T11:00:58.795Z,98.01
2019-05-09T11:01:57.737Z,99.66
2019-05-09T11:02:52.335Z,100.00
2019-05-09T11:03:49.346Z,100.00
2019-05-09T11:04:49.072Z,100.00
2019-05-09T11:05:43.504Z,100.00
2019-05-09T11:06:40.441Z,100.00
2019-05-09T11:07:38.138Z,100.00
2019-05-09T11:08:34.448Z,100.00
2019-05-09T11:09:31.372Z,100.00
2019-05-09T11:10:31.918Z,100.00
2019-05-09T11:11:25.456Z,99.29
2019-05-09T11:12:22.496Z,98.36
2019-05-09T11:13:19.513Z,97.12
2019-05-09T11:14:32.208Z,97.05
2019-05-09T11:15:13.559Z,95.47
2019-05-09T11:16:10.531Z,94.25
2019-05-09T11:17:15.895Z,92.76
2019-05-09T11:18:04.577Z,93.24
2019-05-09T11:19:01.618Z,93.77
2019-05-09T11:19:58.973Z,90.12
2019-05-09T11:20:57.959Z,91.05
2019-05-09T11:21:52.569Z,93.10
2019-05-09T11:22:49.568Z,91.15
2019-05-09T11:23:48.839Z,91.90
2019-05-09T11:24:48.111Z,94.32
2019-05-09T11:25:40.602Z,92.85
2019-05-09T11:26:39.819Z,93.85
2019-05-09T11:27:34.545Z,95.02
2019-05-09T11:28:31.619Z,96.28
2019-05-09T11:29:28.626Z,96.84
2019-05-09T11:30:27.976Z,95.81
2019-05-09T11:31:22.609Z,95.33
2019-05-09T11:32:19.668Z,95.97
2019-05-09T11:33:18.309Z,97.30
2019-05-09T11:34:13.699Z,98.11
2019-05-09T11:35:10.749Z,98.17
2019-05-09T11:36:09.711Z,96.77
2019-05-09T11:40:52.914Z,99.38
2019-05-09T11:41:49.918Z,100.00
2019-05-09T11:42:48.252Z,100.00
2019-05-09T11:43:43.944Z,100.00
2019-05-09T11:44:41.014Z,100.00
2019-05-09T11:45:38.836Z,100.00
2019-05-09T11:46:34.973Z,100.00
2019-05-09T11:47:38.094Z,100.00
2019-05-09T11:52:18.349Z,96.76
2019-05-09T11:57:01.295Z,98.58
2019-05-09T11:57:59.205Z,98.52
2019-05-09T11:58:55.149Z,99.23
2019-05-09T11:59:52.182Z,98.70
2019-05-09T12:00:49.218Z,99.18
2019-05-09T12:01:48.281Z,99.58
2019-05-09T12:02:43.192Z,99.95
2019-05-09T12:03:40.330Z,100.00
2019-05-09T12:04:38.010Z,98.57
2019-05-09T12:05:34.353Z,98.98
2019-05-09T12:06:31.357Z,99.77
2019-05-09T12:07:28.913Z,99.01
2019-05-09T12:08:25.515Z,97.52
2019-05-09T12:09:22.251Z,99.18
2019-05-09T12:10:19.301Z,100.00
2019-05-09T12:11:18.334Z,100.00
2019-05-09T12:12:13.395Z,100.00
2019-05-09T12:13:10.293Z,100.00
2019-05-09T12:14:08.920Z,100.00
2019-05-09T12:15:04.497Z,100.00
2019-05-09T12:16:01.525Z,100.00
2019-05-09T12:16:58.426Z,100.00
2019-05-09T12:18:02.181Z,100.00
2019-05-09T12:18:52.462Z,100.00
2019-05-09T12:19:49.360Z,100.00
2019-05-09T12:20:48.409Z,100.00
2019-05-09T12:21:47.863Z,100.00
2019-05-09T12:22:40.556Z,100.00
2019-05-09T12:23:37.833Z,100.00
2019-05-09T12:24:34.483Z,100.00
2019-05-09T12:25:31.566Z,100.00
2019-05-09T12:26:29.416Z,100.00
2019-05-09T12:27:27.897Z,100.00
2019-05-09T12:28:22.584Z,100.00
2019-05-09T12:29:19.941Z,99.43
2019-05-09T12:30:18.679Z,100.00
2019-05-09T12:31:13.534Z,100.00
2019-05-09T12:32:10.620Z,100.00
2019-05-09T12:33:08.576Z,100.00
2019-05-09T12:34:04.514Z,100.00
2019-05-09T12:35:01.586Z,100.00
2019-05-09T12:35:59.407Z,100.00
2019-05-09T12:36:58.388Z,100.00
2019-05-09T12:37:52.572Z,100.00
2019-05-09T12:38:50.240Z,100.00
2019-05-09T12:39:48.094Z,100.00
2019-05-09T12:40:43.596Z,100.00
2019-05-09T12:41:40.625Z,100.00
2019-05-09T12:42:39.173Z,100.00
2019-05-09T12:43:34.695Z,100.00
2019-05-09T12:44:31.617Z,100.00
2019-05-09T12:45:28.668Z,100.00
2019-05-09T12:46:28.178Z,100.00
2019-05-09T12:47:22.644Z,100.00
2019-05-09T12:48:19.766Z,100.00
2019-05-09T12:49:18.947Z,99.92
2019-05-09T12:50:13.890Z,100.00
2019-05-09T12:51:10.683Z,100.00
2019-05-09T12:52:08.276Z,100.00
2019-05-09T12:53:04.787Z,100.00
2019-05-09T12:54:01.782Z,100.00
2019-05-09T12:54:58.774Z,100.00
2019-05-09T12:55:57.759Z,100.00
2019-05-09T12:56:52.813Z,100.00
2019-05-09T12:57:49.786Z,100.00
2019-05-09T12:58:47.767Z,100.00
2019-05-09T12:59:48.491Z,100.00
2019-05-09T13:00:40.839Z,100.00
2019-05-09T13:01:40.725Z,100.00
2019-05-09T13:02:34.830Z,100.00
2019-05-09T13:03:31.894Z,100.00
2019-05-09T13:04:28.888Z,100.00
2019-05-09T13:05:27.400Z,100.00
2019-05-09T13:06:22.904Z,100.00
2019-05-09T13:07:20.196Z,100.00
2019-05-09T13:08:17.789Z,100.00
2019-05-09T13:09:13.874Z,100.00
2019-05-09T13:10:10.944Z,100.00
2019-05-09T13:11:08.229Z,100.00
2019-05-09T13:12:04.889Z,100.00
2019-05-09T13:13:02.183Z,100.00
2019-05-09T13:13:58.991Z,100.00
2019-05-09T13:14:58.016Z,100.00
2019-05-09T13:15:52.975Z,100.00
2019-05-09T13:16:53.578Z,100.00
2019-05-09T13:17:48.020Z,100.00
2019-05-09T13:18:44.023Z,100.00
2019-05-09T13:19:41.035Z,100.00
2019-05-09T13:20:38.264Z,100.00
2019-05-09T13:21:36.127Z,100.00
2019-05-09T13:22:31.982Z,100.00
2019-05-09T13:23:30.460Z,100.00
2019-05-09T13:24:28.237Z,100.00
2019-05-09T13:25:23.010Z,100.00
2019-05-09T13:26:20.068Z,100.00
2019-05-09T13:27:18.926Z,100.00
2019-05-09T13:28:14.264Z,100.00
2019-05-09T13:29:11.050Z,100.00
2019-05-09T13:30:08.478Z,100.00
2019-05-09T13:31:08.069Z,100.00
2019-05-09T13:32:02.159Z,100.00
2019-05-09T13:32:59.113Z,100.00
2019-05-09T13:33:58.326Z,100.00
2019-05-09T13:34:53.161Z,100.00
2019-05-09T13:35:50.220Z,100.00
2019-05-09T13:36:48.917Z,100.00
2019-05-09T13:37:44.181Z,100.00
2019-05-09T13:38:55.446Z,100.00
2019-05-09T13:39:39.713Z,100.00
2019-05-09T13:40:35.281Z,100.00
2019-05-09T13:41:32.270Z,100.00
2019-05-09T13:42:29.262Z,100.00
2019-05-09T13:43:28.166Z,100.00
2019-05-09T13:44:23.265Z,100.00
2019-05-09T13:45:20.264Z,100.00
2019-05-09T13:46:18.057Z,100.00
2019-05-09T13:47:14.268Z,100.00
2019-05-09T13:48:26.419Z,100.00
2019-05-09T13:49:14.769Z,100.00
2019-05-09T13:50:05.325Z,100.00
2019-05-09T13:51:02.356Z,100.00
2019-05-09T13:52:04.434Z,100.00
2019-05-09T13:52:58.299Z,100.00
2019-05-09T13:53:53.918Z,100.00
2019-05-09T13:54:50.338Z,100.00
2019-05-09T13:55:48.042Z,100.00
2019-05-09T13:56:44.433Z,100.00
2019-05-09T13:57:41.344Z,100.00
2019-05-09T13:58:38.570Z,100.00
2019-05-09T13:59:37.445Z,100.00
2019-05-09T14:00:32.394Z,100.00
2019-05-09T14:01:29.394Z,100.00
2019-05-09T14:02:28.550Z,100.00
2019-05-09T14:03:23.895Z,100.00
2019-05-09T14:04:20.427Z,100.00
2019-05-09T14:05:19.004Z,100.00
2019-05-09T14:06:14.508Z,100.00
2019-05-09T14:07:11.514Z,100.00
2019-05-09T14:08:11.540Z,100.00
2019-05-09T14:09:05.537Z,100.00
2019-05-09T14:10:02.528Z,100.00
2019-05-09T14:10:59.470Z,100.00
2019-05-09T14:11:58.988Z,100.00
2019-05-09T14:13:05.801Z,100.00
2019-05-09T14:13:50.603Z,100.00
2019-05-09T14:14:47.596Z,100.00
2019-05-09T14:15:44.545Z,100.00
2019-05-09T14:16:41.603Z,100.00
2019-05-09T14:17:49.544Z,100.00
2019-05-09T14:18:35.574Z,100.00
2019-05-09T14:19:44.938Z,100.00
2019-05-09T14:20:29.633Z,100.00
2019-05-09T14:21:29.531Z,100.00
2019-05-09T14:22:23.639Z,100.00
2019-05-09T14:23:20.910Z,100.00
2019-05-09T14:24:19.209Z,100.00
2019-05-09T14:25:14.610Z,100.00
2019-05-09T14:26:11.647Z,100.00
2019-05-09T14:27:08.705Z,100.00
2019-05-09T14:28:08.337Z,100.00
2019-05-09T14:29:02.680Z,100.00
2019-05-09T14:29:59.935Z,100.00
2019-05-09T14:30:56.793Z,100.00
2019-05-09T14:31:53.696Z,100.00
2019-05-09T14:32:50.754Z,100.00
2019-05-09T14:33:47.885Z,100.00
2019-05-09T14:34:44.800Z,100.00
2019-05-09T14:35:41.830Z,100.00
2019-05-09T14:36:44.710Z,100.00
2019-05-09T14:37:35.796Z,100.00
2019-05-09T14:38:32.741Z,100.00
2019-05-09T14:39:29.854Z,100.00
2019-05-09T14:40:28.092Z,100.00
2019-05-09T14:41:23.876Z,100.00
2019-05-09T14:42:20.777Z,100.00
2019-05-09T14:43:18.518Z,100.00
2019-05-09T14:44:14.953Z,100.00
2019-05-09T14:45:11.924Z,100.00
2019-05-09T14:46:08.822Z,100.00
2019-05-09T14:47:08.009Z,100.00
2019-05-09T14:48:02.908Z,100.00
2019-05-09T14:48:59.837Z,100.00
2019-05-09T14:49:59.324Z,100.00
2019-05-09T14:50:53.914Z,100.00
2019-05-09T14:51:50.952Z,100.00
2019-05-09T14:52:49.087Z,100.00
2019-05-09T14:53:44.935Z,100.00
2019-05-09T14:54:41.985Z,100.00
2019-05-09T14:55:42.814Z,100.00
2019-05-09T14:56:41.159Z,100.00
2019-05-09T14:57:33.039Z,100.00
2019-05-09T14:58:30.021Z,100.00
2019-05-09T14:59:28.649Z,100.00
2019-05-09T15:00:23.995Z,100.00
2019-05-09T15:01:21.017Z,100.00
2019-05-09T15:02:18.110Z,100.00
2019-05-09T15:03:15.025Z,100.00
2019-05-09T15:04:12.113Z,100.00
2019-05-09T15:05:09.680Z,100.00
2019-05-09T15:06:07.547Z,100.00
2019-05-09T15:07:03.078Z,100.00
2019-05-09T15:08:00.107Z,100.00
2019-05-09T15:08:58.141Z,100.00
2019-05-09T15:09:56.802Z,100.00
2019-05-09T15:10:51.168Z,100.00
2019-05-09T15:11:48.635Z,100.00
2019-05-09T15:12:45.152Z,100.00
2019-05-09T15:13:42.107Z,100.00
2019-05-09T15:14:39.169Z,100.00
2019-05-09T15:15:38.048Z,100.00
2019-05-09T15:16:33.248Z,100.00
2019-05-09T15:17:30.224Z,100.00
2019-05-09T15:18:27.220Z,100.00
2019-05-09T15:19:24.231Z,100.00
2019-05-09T15:20:21.177Z,100.00
2019-05-09T15:21:19.222Z,100.00
2019-05-09T15:22:15.159Z,100.00
2019-05-09T15:23:12.261Z,100.00
2019-05-09T15:24:09.491Z,100.00
2019-05-09T15:25:08.576Z,100.00
2019-05-09T15:26:03.357Z,100.00
2019-05-09T15:27:00.342Z,100.00
2019-05-09T15:27:57.995Z,100.00
2019-05-09T15:28:54.367Z,100.00
2019-05-09T15:29:51.313Z,100.00
2019-05-09T15:30:49.021Z,100.00
2019-05-09T15:31:52.989Z,100.00
2019-05-09T15:32:42.338Z,100.00
2019-05-09T15:33:39.400Z,100.00
2019-05-09T15:34:38.206Z,100.00
2019-05-09T15:35:33.388Z,100.00
2019-05-09T15:36:30.418Z,100.00
2019-05-09T15:37:28.595Z,100.00
2019-05-09T15:38:24.390Z,100.00
2019-05-09T15:39:21.406Z,100.00
2019-05-09T15:40:18.462Z,100.00
2019-05-09T15:41:15.456Z,100.00
2019-05-09T15:42:12.498Z,100.00
2019-05-09T15:43:09.441Z,100.00
2019-05-09T15:44:08.224Z,100.00
2019-05-09T15:45:03.493Z,100.00
2019-05-09T15:46:00.459Z,100.00
2019-05-09T15:46:57.515Z,100.00
2019-05-09T15:47:54.553Z,100.00
2019-05-09T15:48:51.519Z,100.00
2019-05-09T15:49:49.439Z,100.00
2019-05-09T15:50:47.597Z,100.00
2019-05-09T15:51:42.466Z,100.00
2019-05-09T15:52:39.608Z,100.00
2019-05-09T15:53:38.128Z,100.00
2019-05-09T15:54:33.572Z,100.00
2019-05-09T15:55:30.548Z,100.00
2019-05-09T15:56:28.806Z,100.00
2019-05-09T15:57:24.593Z,100.00
2019-05-09T15:58:21.668Z,100.00
2019-05-09T15:59:18.587Z,100.00
2019-05-09T16:00:15.605Z,100.00
2019-05-09T16:01:12.906Z,100.00
2019-05-09T16:02:09.610Z,100.00
2019-05-09T16:03:06.700Z,100.00
2019-05-09T16:04:03.689Z,100.00
2019-05-09T16:05:00.679Z,100.00
2019-05-09T16:05:58.446Z,100.00
2019-05-09T16:06:54.717Z,100.00
2019-05-09T16:07:51.730Z,100.00
2019-05-09T16:08:48.630Z,100.00
2019-05-09T16:09:48.105Z,100.00
2019-05-09T16:10:42.716Z,100.00
2019-05-09T16:11:39.834Z,100.00
2019-05-09T16:12:38.409Z,100.00
2019-05-09T16:13:33.718Z,100.00
2019-05-09T16:14:30.786Z,100.00
2019-05-09T16:15:28.752Z,100.00
2019-05-09T16:16:24.837Z,100.00
2019-05-09T16:17:21.775Z,100.00
2019-05-09T16:18:18.835Z,100.00
2019-05-09T16:19:15.877Z,100.00
2019-05-09T16:20:12.823Z,100.00
2019-05-09T16:21:09.824Z,100.00
2019-05-09T16:22:08.036Z,100.00
2019-05-09T16:23:03.785Z,100.00
2019-05-09T16:24:00.819Z,100.00
2019-05-09T16:24:57.847Z,100.00
2019-05-09T16:25:54.909Z,100.00
2019-05-09T16:26:51.837Z,100.00
2019-05-09T16:27:48.857Z,100.00
2019-05-09T16:28:48.595Z,100.00
2019-05-09T16:29:42.837Z,100.00
2019-05-09T16:30:39.874Z,100.00
2019-05-09T16:31:38.842Z,100.00
2019-05-09T16:32:33.987Z,100.00
2019-05-09T16:33:30.884Z,100.00
2019-05-09T16:34:28.292Z,100.00
2019-05-09T16:35:24.974Z,100.00
2019-05-09T16:36:21.998Z,100.00
2019-05-09T16:37:18.949Z,100.00
2019-05-09T16:38:18.428Z,100.00
2019-05-09T16:39:13.007Z,100.00
2019-05-09T16:40:09.947Z,100.00
2019-05-09T16:41:07.662Z,100.00
2019-05-09T16:42:04.108Z,100.00
2019-05-09T16:43:01.102Z,100.00
2019-05-09T16:43:58.439Z,100.00
2019-05-09T16:44:55.047Z,100.00
2019-05-09T16:45:52.121Z,100.00
2019-05-09T16:46:49.234Z,100.00
2019-05-09T16:47:48.262Z,100.00
2019-05-09T16:48:43.077Z,100.00
2019-05-09T16:49:40.132Z,100.00
2019-05-09T16:50:39.968Z,100.00
2019-05-09T16:51:34.120Z,100.00
2019-05-09T16:52:31.156Z,100.00
2019-05-09T16:53:28.191Z,100.00
2019-05-09T16:54:25.130Z,100.00
2019-05-09T16:55:22.146Z,100.00
2019-05-09T16:56:19.205Z,100.00
2019-05-09T16:57:18.096Z,100.00
2019-05-09T16:58:13.136Z,100.00
2019-05-09T16:59:10.177Z,100.00
2019-05-09T17:00:07.881Z,100.00
2019-05-09T17:01:04.256Z,100.00
2019-05-09T17:02:16.888Z,100.00
2019-05-09T17:02:58.325Z,100.00
2019-05-09T17:03:57.345Z,100.00
2019-05-09T17:04:52.230Z,100.00
2019-05-09T17:05:49.333Z,100.00
2019-05-09T17:06:46.294Z,100.00
2019-05-09T17:07:43.310Z,100.00
2019-05-09T17:08:40.287Z,100.00
2019-05-09T17:09:37.709Z,100.00
2019-05-09T17:10:34.316Z,100.00
2019-05-09T17:11:31.271Z,100.00
2019-05-09T17:12:28.315Z,100.00
2019-05-09T17:13:25.362Z,100.00
2019-05-09T17:14:22.402Z,100.00
2019-05-09T17:15:19.313Z,100.00
2019-05-09T17:16:17.786Z,100.00
2019-05-09T17:17:13.386Z,100.00
2019-05-09T17:18:10.452Z,100.00
2019-05-09T17:19:07.363Z,100.00
2019-05-09T17:20:04.431Z,100.00
2019-05-09T17:21:15.050Z,100.00
2019-05-09T17:21:58.578Z,100.00
2019-05-09T17:23:09.991Z,100.00
2019-05-09T17:23:52.439Z,100.00
2019-05-09T17:24:49.508Z,100.00
2019-05-09T17:25:48.044Z,100.00
2019-05-09T17:26:43.463Z,100.00
2019-05-09T17:27:40.508Z,100.00
2019-05-09T17:28:37.725Z,100.00
2019-05-09T17:29:34.495Z,100.00
2019-05-09T17:30:31.585Z,100.00
2019-05-09T17:31:28.566Z,100.00
2019-05-09T17:32:25.600Z,100.00
2019-05-09T17:33:22.542Z,100.00
2019-05-09T17:34:19.584Z,100.00
2019-05-09T17:35:18.568Z,100.00
2019-05-09T17:36:13.532Z,100.00
2019-05-09T17:37:10.639Z,100.00
2019-05-09T17:38:08.653Z,100.00
2019-05-09T17:39:04.636Z,100.00
2019-05-09T17:40:01.561Z,100.00
2019-05-09T17:40:58.700Z,100.00
2019-05-09T17:41:58.073Z,100.00
2019-05-09T17:42:52.657Z,100.00
2019-05-09T17:43:49.648Z,100.00
2019-05-09T17:44:48.840Z,100.00
2019-05-09T17:45:43.705Z,100.00
2019-05-09T17:46:40.621Z,100.00
2019-05-09T17:47:37.860Z,100.00
2019-05-09T17:48:34.732Z,100.00
2019-05-09T17:49:31.765Z,100.00
2019-05-09T17:50:28.700Z,100.00
2019-05-09T17:51:33.069Z,100.00
2019-05-09T17:52:22.829Z,100.00
2019-05-09T17:53:19.671Z,100.00
2019-05-09T17:54:18.299Z,100.00
2019-05-09T17:55:13.826Z,100.00
2019-05-09T17:56:11.049Z,100.00
2019-05-09T17:57:08.022Z,100.00
2019-05-09T17:58:04.784Z,100.00
2019-05-09T17:59:01.834Z,100.00
2019-05-09T17:59:58.862Z,100.00
2019-05-09T18:00:57.646Z,100.00
2019-05-09T18:01:52.831Z,100.00
2019-05-09T18:02:49.937Z,100.00
2019-05-09T18:03:48.085Z,100.00
2019-05-09T18:04:43.823Z,100.00
2019-05-09T18:05:40.892Z,100.00
2019-05-09T18:06:38.156Z,100.00
2019-05-09T18:07:34.915Z,100.00
2019-05-09T18:08:31.909Z,100.00
2019-05-09T18:09:28.912Z,100.00
2019-05-09T18:10:25.937Z,100.00
2019-05-09T18:11:22.974Z,100.00
2019-05-09T18:12:19.928Z,100.00
2019-05-09T18:13:23.577Z,100.00
2019-05-09T18:14:13.902Z,100.00
2019-05-09T18:15:10.933Z,100.00
2019-05-09T18:16:08.045Z,100.00
2019-05-09T18:17:05.002Z,100.00
2019-05-09T18:18:01.944Z,100.00
2019-05-09T18:18:58.975Z,100.00
2019-05-09T18:19:58.295Z,100.00
2019-05-09T18:20:52.952Z,100.00
2019-05-09T18:21:51.326Z,100.00
2019-05-09T18:22:47.931Z,100.00
2019-05-09T18:23:44.055Z,100.00
2019-05-09T18:24:40.987Z,100.00
2019-05-09T18:25:38.125Z,100.00
2019-05-09T18:26:35.064Z,100.00
2019-05-09T18:27:32.119Z,100.00
2019-05-09T18:28:29.440Z,100.00
2019-05-09T18:29:27.408Z,100.00
2019-05-09T18:30:23.109Z,100.00
2019-05-09T18:31:20.134Z,100.00
2019-05-09T18:32:17.123Z,100.00
2019-05-09T18:33:14.209Z,100.00
2019-05-09T18:34:11.207Z,100.00
2019-05-09T18:35:08.154Z,100.00
2019-05-09T18:36:05.139Z,100.00
2019-05-09T18:37:02.170Z,100.00
2019-05-09T18:37:59.227Z,100.00
2019-05-09T18:38:58.256Z,100.00
2019-05-09T18:39:53.241Z,100.00
2019-05-09T18:40:50.219Z,100.00
2019-05-09T18:41:48.373Z,100.00
2019-05-09T18:42:44.244Z,100.00
2019-05-09T18:43:41.360Z,100.00
2019-05-09T18:44:38.262Z,100.00
2019-05-09T18:45:37.393Z,100.00
2019-05-09T18:46:32.262Z,100.00
2019-05-09T18:47:29.363Z,100.00
2019-05-09T18:48:27.871Z,100.00
2019-05-09T18:49:23.251Z,100.00
2019-05-09T18:50:20.283Z,100.00
2019-05-09T18:51:17.319Z,100.00
2019-05-09T18:52:14.266Z,100.00
2019-05-09T18:53:11.390Z,100.00
2019-05-09T18:54:08.366Z,100.00
2019-05-09T18:55:05.366Z,100.00
2019-05-09T18:56:02.308Z,100.00
2019-05-09T18:56:59.354Z,100.00
2019-05-09T18:57:56.380Z,100.00
2019-05-09T18:58:53.433Z,100.00
2019-05-09T18:59:50.353Z,100.00
2019-05-09T19:00:47.386Z,100.00
2019-05-09T19:01:44.422Z,100.00
2019-05-09T19:02:41.449Z,100.00
2019-05-09T19:03:38.495Z,100.00
2019-05-09T19:04:35.472Z,100.00
2019-05-09T19:05:32.516Z,100.00
2019-05-09T19:06:29.498Z,100.00
2019-05-09T19:07:26.549Z,100.00
2019-05-09T19:08:23.573Z,100.00
2019-05-09T19:09:20.517Z,100.00
2019-05-09T19:10:17.494Z,100.00
2019-05-09T19:11:14.530Z,100.00
2019-05-09T19:12:11.620Z,100.00
2019-05-09T19:13:08.565Z,100.00
2019-05-09T19:14:05.593Z,100.00
2019-05-09T19:15:02.537Z,100.00
2019-05-09T19:15:59.594Z,100.00
2019-05-09T19:16:56.531Z,100.00
2019-05-09T19:17:53.547Z,100.00
2019-05-09T19:18:50.684Z,100.00
2019-05-09T19:19:47.626Z,100.00
2019-05-09T19:20:44.817Z,100.00
2019-05-09T19:21:41.633Z,100.00
2019-05-09T19:22:38.633Z,100.00
2019-05-09T19:23:35.587Z,100.00
2019-05-09T19:24:32.606Z,100.00
2019-05-09T19:25:29.648Z,100.00
2019-05-09T19:26:27.093Z,100.00
2019-05-09T19:27:23.620Z,100.00
2019-05-09T19:28:24.074Z,100.00
2019-05-09T19:29:17.747Z,100.00
2019-05-09T19:30:14.827Z,100.00
2019-05-09T19:31:11.666Z,100.00
2019-05-09T19:32:08.793Z,100.00
2019-05-09T19:33:05.832Z,100.00
2019-05-09T19:34:02.778Z,100.00
2019-05-09T19:34:59.720Z,100.00
2019-05-09T19:35:56.755Z,100.00
2019-05-09T19:36:53.784Z,100.00
2019-05-09T19:37:50.815Z,100.00
2019-05-09T19:38:47.773Z,100.00
2019-05-09T19:39:44.801Z,100.00
2019-05-09T19:40:41.871Z,100.00
2019-05-09T19:41:38.878Z,100.00
2019-05-09T19:42:35.898Z,100.00
2019-05-09T19:43:32.844Z,100.00
2019-05-09T19:44:29.793Z,100.00
2019-05-09T19:45:26.854Z,100.00
2019-05-09T19:46:23.854Z,100.00
2019-05-09T19:47:20.929Z,100.00
2019-05-09T19:48:17.833Z,100.00
2019-05-09T19:49:14.848Z,100.00
2019-05-09T19:50:11.908Z,100.00
2019-05-09T19:51:08.938Z,100.00
2019-05-09T19:52:05.885Z,100.00
2019-05-09T19:53:02.956Z,100.00
2019-05-09T19:53:59.985Z,100.00
2019-05-09T19:54:56.909Z,100.00
2019-05-09T19:55:53.919Z,100.00
2019-05-09T19:56:50.959Z,100.00
2019-05-09T19:57:47.997Z,100.00
2019-05-09T19:58:45.023Z,100.00
2019-05-09T19:59:42.064Z,100.00
2019-05-09T20:00:39.047Z,100.00
2019-05-09T20:01:36.043Z,100.00
2019-05-09T20:02:33.082Z,100.00
2019-05-09T20:03:30.039Z,100.00
2019-05-09T20:04:27.079Z,100.00
2019-05-09T20:05:24.093Z,100.00
2019-05-09T20:06:21.035Z,100.00
2019-05-09T20:07:18.056Z,100.00
2019-05-09T20:08:15.191Z,100.00
2019-05-09T20:09:12.041Z,100.00
2019-05-09T20:10:09.165Z,100.00
2019-05-09T20:11:06.111Z,100.00
2019-05-09T20:12:03.146Z,100.00
2019-05-09T20:13:00.115Z,100.00
2019-05-09T20:13:57.225Z,100.00
2019-05-09T20:14:54.104Z,100.00
2019-05-09T20:15:51.127Z,100.00
2019-05-09T20:16:48.134Z,100.00
2019-05-09T20:17:45.182Z,100.00
2019-05-09T20:18:42.256Z,100.00
2019-05-09T20:19:39.183Z,100.00
2019-05-09T20:20:36.281Z,100.00
2019-05-09T20:21:33.254Z,100.00
2019-05-09T20:22:30.308Z,100.00
2019-05-09T20:23:27.301Z,100.00
2019-05-09T20:24:24.193Z,100.00
2019-05-09T20:25:21.277Z,100.00
2019-05-09T20:26:18.340Z,100.00
2019-05-09T20:27:15.237Z,100.00
2019-05-09T20:28:12.324Z,100.00
2019-05-09T20:29:09.420Z,100.00
2019-05-09T20:30:06.274Z,100.00
2019-05-09T20:31:03.345Z,100.00
2019-05-09T20:32:00.358Z,100.00
2019-05-09T20:32:57.371Z,100.00
2019-05-09T20:33:54.315Z,100.00
2019-05-09T20:34:51.371Z,100.00
2019-05-09T20:35:48.399Z,100.00
2019-05-09T20:36:45.314Z,100.00
2019-05-09T20:37:42.378Z,100.00
2019-05-09T20:38:39.403Z,100.00
2019-05-09T20:39:36.419Z,100.00
2019-05-09T20:40:33.366Z,100.00
2019-05-09T20:41:30.431Z,100.00
2019-05-09T20:42:27.461Z,100.00
2019-05-09T20:43:24.464Z,100.00
2019-05-09T20:44:21.418Z,100.00
2019-05-09T20:45:18.476Z,100.00
2019-05-09T20:46:15.423Z,100.00
2019-05-09T20:47:12.510Z,100.00
2019-05-09T20:48:09.586Z,100.00
2019-05-09T20:49:06.546Z,100.00
2019-05-09T20:50:03.542Z,100.00
2019-05-09T20:51:00.558Z,100.00
2019-05-09T20:51:57.534Z,100.00
2019-05-09T20:53:08.393Z,100.00
2019-05-09T20:53:52.496Z,100.00
2019-05-09T20:54:48.523Z,100.00
2019-05-09T20:55:45.631Z,100.00
2019-05-09T20:56:42.579Z,100.00
2019-05-09T20:57:39.625Z,100.00
2019-05-09T20:58:36.571Z,100.00
2019-05-09T20:59:33.615Z,100.00
2019-05-09T21:00:30.633Z,100.00
2019-05-09T21:01:27.653Z,100.00
2019-05-09T21:02:24.613Z,100.00
2019-05-09T21:03:21.679Z,100.00
2019-05-09T21:04:18.701Z,100.00
2019-05-09T21:05:15.610Z,100.00
2019-05-09T21:06:12.671Z,100.00
2019-05-09T21:07:09.695Z,100.00
2019-05-09T21:08:06.728Z,100.00
2019-05-09T21:09:03.758Z,100.00
2019-05-09T21:10:00.823Z,100.00
2019-05-09T21:10:57.876Z,100.00
2019-05-09T21:11:54.824Z,100.00
2019-05-09T21:12:51.718Z,100.00
2019-05-09T21:13:49.019Z,100.00
2019-05-09T21:14:45.873Z,100.00
2019-05-09T21:15:42.757Z,100.00
2019-05-09T21:16:39.775Z,100.00
2019-05-09T21:17:36.726Z,100.00
2019-05-09T21:18:33.971Z,100.00
2019-05-09T21:19:30.782Z,100.00
2019-05-09T21:20:27.838Z,100.00
2019-05-09T21:21:24.927Z,100.00
2019-05-09T21:22:21.881Z,100.00
2019-05-09T21:23:24.807Z,100.00
2019-05-09T21:24:15.889Z,100.00
2019-05-09T21:25:12.973Z,100.00
2019-05-09T21:26:09.826Z,100.00
2019-05-09T21:27:06.949Z,100.00
2019-05-09T21:28:03.964Z,100.00
2019-05-09T21:29:00.934Z,100.00
2019-05-09T21:29:57.895Z,100.00
2019-05-09T21:30:54.906Z,100.00
2019-05-09T21:31:51.975Z,100.00
2019-05-09T21:32:48.980Z,100.00
2019-05-09T21:33:45.951Z,100.00
2019-05-09T21:34:42.963Z,100.00
2019-05-09T21:35:40.016Z,100.00
2019-05-09T21:36:36.958Z,100.00
2019-05-09T21:37:34.004Z,100.00
2019-05-09T21:38:31.024Z,100.00
2019-05-09T21:39:28.073Z,100.00
2019-05-09T21:40:24.991Z,100.00
2019-05-09T21:41:22.061Z,100.00
2019-05-09T21:42:19.169Z,100.00
2019-05-09T21:43:15.992Z,100.00
2019-05-09T21:44:13.018Z,100.00
2019-05-09T21:45:10.103Z,100.00
2019-05-09T21:46:07.190Z,100.00